sensor_id;sensor_type;location;lat;lon;timestamp;pressure;altitude;pressure_sealevel;temperature;humidity
41254;BME280;26987;59.928;30.306;2024-01-11T00:02:17;99721.03;;;0.19;100.00
41254;BME280;26987;59.928;30.306;2024-01-11T00:04:48;99755.00;;;0.47;100.00
41254;BME280;26987;59.928;30.306;2024-01-11T00:07:19;99757.47;;;0.49;100.00
41254;BME280;26987;59.928;30.306;2024-01-11T00:09:48;99758.78;;;0.53;100.00
41254;BME280;26987;59.928;30.306;2024-01-11T00:12:30;99657.41;;;-0.11;100.00
41254;BME280;26987;59.928;30.306;2024-01-11T00:15:07;99761.94;;;0.57;100.00
41254;BME280;26987;59.928;30.306;2024-01-11T00:17:36;99757.66;;;0.56;100.00
41254;BME280;26987;59.928;30.306;2024-01-11T00:20:06;99719.38;;;0.18;100.00
41254;BME280;26987;59.928;30.306;2024-01-11T00:22:39;99766.22;;;0.49;100.00
41254;BME280;26987;59.928;30.306;2024-01-11T00:25:14;99665.16;;;-0.09;100.00
41254;BME280;26987;59.928;30.306;2024-01-11T00:27:51;99731.28;;;0.39;100.00
41254;BME280;26987;59.928;30.306;2024-01-11T00:30:21;99749.91;;;0.37;100.00
41254;BME280;26987;59.928;30.306;2024-01-11T00:32:50;99760.28;;;0.31;100.00
41254;BME280;26987;59.928;30.306;2024-01-11T00:35:18;99761.25;;;0.21;100.00
41254;BME280;26987;59.928;30.306;2024-01-11T00:37:46;99764.22;;;0.27;100.00
41254;BME280;26987;59.928;30.306;2024-01-11T00:40:14;99766.50;;;0.21;100.00
41254;BME280;26987;59.928;30.306;2024-01-11T00:42:42;99758.13;;;0.26;100.00
41254;BME280;26987;59.928;30.306;2024-01-11T00:45:10;99758.28;;;0.24;100.00
41254;BME280;26987;59.928;30.306;2024-01-11T00:47:39;99766.50;;;0.21;100.00
41254;BME280;26987;59.928;30.306;2024-01-11T00:50:09;99761.91;;;0.23;100.00
41254;BME280;26987;59.928;30.306;2024-01-11T00:52:37;99772.31;;;0.25;100.00
41254;BME280;26987;59.928;30.306;2024-01-11T00:55:06;99769.31;;;0.20;100.00
41254;BME280;26987;59.928;30.306;2024-01-11T00:57:34;99775.94;;;0.24;100.00
41254;BME280;26987;59.928;30.306;2024-01-11T01:00:03;99759.75;;;0.10;100.00
41254;BME280;26987;59.928;30.306;2024-01-11T01:02:31;99731.06;;;-0.01;100.00
41254;BME280;26987;59.928;30.306;2024-01-11T01:05:00;99787.47;;;0.31;100.00
41254;BME280;26987;59.928;30.306;2024-01-11T01:07:28;99758.44;;;0.23;100.00
41254;BME280;26987;59.928;30.306;2024-01-11T01:09:56;99777.91;;;0.39;100.00
41254;BME280;26987;59.928;30.306;2024-01-11T01:12:24;99773.97;;;0.43;100.00
41254;BME280;26987;59.928;30.306;2024-01-11T01:14:52;99793.09;;;0.45;100.00
41254;BME280;26987;59.928;30.306;2024-01-11T01:17:20;99791.25;;;0.45;100.00
41254;BME280;26987;59.928;30.306;2024-01-11T01:19:48;99790.47;;;0.45;100.00
41254;BME280;26987;59.928;30.306;2024-01-11T01:22:17;99794.22;;;0.42;100.00
41254;BME280;26987;59.928;30.306;2024-01-11T01:24:45;99813.72;;;0.49;100.00
41254;BME280;26987;59.928;30.306;2024-01-11T01:27:13;99816.84;;;0.45;100.00
41254;BME280;26987;59.928;30.306;2024-01-11T01:29:41;99816.16;;;0.43;100.00
41254;BME280;26987;59.928;30.306;2024-01-11T01:32:09;99811.22;;;0.40;100.00
41254;BME280;26987;59.928;30.306;2024-01-11T01:34:37;99810.25;;;0.41;100.00
41254;BME280;26987;59.928;30.306;2024-01-11T01:37:05;99810.22;;;0.32;100.00
41254;BME280;26987;59.928;30.306;2024-01-11T01:39:37;99811.22;;;0.40;100.00
41254;BME280;26987;59.928;30.306;2024-01-11T01:42:05;99810.56;;;0.37;100.00
41254;BME280;26987;59.928;30.306;2024-01-11T01:44:33;99815.00;;;0.45;100.00
41254;BME280;26987;59.928;30.306;2024-01-11T01:47:02;99824.91;;;0.43;100.00
41254;BME280;26987;59.928;30.306;2024-01-11T01:49:31;99817.81;;;0.35;100.00
41254;BME280;26987;59.928;30.306;2024-01-11T01:51:59;99807.59;;;0.24;100.00
41254;BME280;26987;59.928;30.306;2024-01-11T01:54:27;99804.59;;;0.10;100.00
41254;BME280;26987;59.928;30.306;2024-01-11T01:56:56;99831.28;;;0.16;100.00
41254;BME280;26987;59.928;30.306;2024-01-11T01:59:26;99820.25;;;0.12;100.00
41254;BME280;26987;59.928;30.306;2024-01-11T02:01:55;99845.78;;;0.11;100.00
41254;BME280;26987;59.928;30.306;2024-01-11T02:04:23;99804.56;;;-0.41;100.00
41254;BME280;26987;59.928;30.306;2024-01-11T02:06:53;99883.22;;;-0.20;100.00
41254;BME280;26987;59.928;30.306;2024-01-11T02:09:22;99884.31;;;-0.57;100.00
41254;BME280;26987;59.928;30.306;2024-01-11T02:11:52;99892.63;;;-0.70;100.00
41254;BME280;26987;59.928;30.306;2024-01-11T02:14:21;99907.47;;;-0.87;100.00
41254;BME280;26987;59.928;30.306;2024-01-11T02:16:49;99900.25;;;-1.04;100.00
41254;BME280;26987;59.928;30.306;2024-01-11T02:19:19;99901.00;;;-1.11;100.00
41254;BME280;26987;59.928;30.306;2024-01-11T02:21:49;99915.28;;;-1.14;100.00
41254;BME280;26987;59.928;30.306;2024-01-11T02:24:19;99933.25;;;-1.09;100.00
41254;BME280;26987;59.928;30.306;2024-01-11T02:27:01;99921.00;;;-1.19;100.00
41254;BME280;26987;59.928;30.306;2024-01-11T02:29:30;99937.06;;;-1.22;100.00
41254;BME280;26987;59.928;30.306;2024-01-11T02:31:59;99942.34;;;-1.22;100.00
41254;BME280;26987;59.928;30.306;2024-01-11T02:34:28;99925.34;;;-1.28;100.00
41254;BME280;26987;59.928;30.306;2024-01-11T02:36:56;99988.34;;;-1.26;100.00
41254;BME280;26987;59.928;30.306;2024-01-11T02:39:26;99945.72;;;-1.48;100.00
41254;BME280;26987;59.928;30.306;2024-01-11T02:41:56;99937.84;;;-1.58;100.00
41254;BME280;26987;59.928;30.306;2024-01-11T02:44:24;99942.97;;;-1.56;100.00
41254;BME280;26987;59.928;30.306;2024-01-11T02:46:52;99988.88;;;-1.50;100.00
41254;BME280;26987;59.928;30.306;2024-01-11T02:49:20;99974.59;;;-1.66;100.00
41254;BME280;26987;59.928;30.306;2024-01-11T02:51:48;100008.75;;;-1.66;100.00
41254;BME280;26987;59.928;30.306;2024-01-11T02:54:16;99950.38;;;-1.98;100.00
41254;BME280;26987;59.928;30.306;2024-01-11T02:56:46;99983.53;;;-1.87;100.00
41254;BME280;26987;59.928;30.306;2024-01-11T02:59:14;100005.06;;;-1.83;100.00
41254;BME280;26987;59.928;30.306;2024-01-11T03:01:42;100043.53;;;-1.82;100.00
41254;BME280;26987;59.928;30.306;2024-01-11T03:04:10;100029.59;;;-1.93;100.00
41254;BME280;26987;59.928;30.306;2024-01-11T03:06:38;100022.84;;;-2.05;100.00
41254;BME280;26987;59.928;30.306;2024-01-11T03:09:07;100043.47;;;-2.10;100.00
41254;BME280;26987;59.928;30.306;2024-01-11T03:11:36;100042.78;;;-2.22;100.00
41254;BME280;26987;59.928;30.306;2024-01-11T03:14:06;100055.91;;;-2.22;100.00
41254;BME280;26987;59.928;30.306;2024-01-11T03:16:34;100066.03;;;-2.28;100.00
41254;BME280;26987;59.928;30.306;2024-01-11T03:19:02;100055.78;;;-2.41;100.00
41254;BME280;26987;59.928;30.306;2024-01-11T03:21:30;100065.47;;;-2.41;100.00
41254;BME280;26987;59.928;30.306;2024-01-11T03:23:58;100067.81;;;-2.48;100.00
41254;BME280;26987;59.928;30.306;2024-01-11T03:26:29;100087.16;;;-2.49;100.00
41254;BME280;26987;59.928;30.306;2024-01-11T03:28:57;100083.94;;;-2.72;100.00
41254;BME280;26987;59.928;30.306;2024-01-11T03:31:27;100090.03;;;-2.72;100.00
41254;BME280;26987;59.928;30.306;2024-01-11T03:33:55;100125.28;;;-2.74;100.00
41254;BME280;26987;59.928;30.306;2024-01-11T03:36:23;100101.28;;;-3.01;100.00
41254;BME280;26987;59.928;30.306;2024-01-11T03:38:52;100121.28;;;-3.10;100.00
41254;BME280;26987;59.928;30.306;2024-01-11T03:41:20;100125.59;;;-3.09;100.00
41254;BME280;26987;59.928;30.306;2024-01-11T03:43:49;100155.78;;;-3.14;100.00
41254;BME280;26987;59.928;30.306;2024-01-11T03:46:17;100123.31;;;-3.23;100.00
41254;BME280;26987;59.928;30.306;2024-01-11T03:48:48;100129.66;;;-3.26;100.00
41254;BME280;26987;59.928;30.306;2024-01-11T03:51:16;100111.09;;;-3.34;100.00
41254;BME280;26987;59.928;30.306;2024-01-11T03:53:43;100150.06;;;-3.30;100.00
41254;BME280;26987;59.928;30.306;2024-01-11T03:56:11;100136.91;;;-3.39;100.00
41254;BME280;26987;59.928;30.306;2024-01-11T03:58:42;100148.56;;;-3.53;100.00
41254;BME280;26987;59.928;30.306;2024-01-11T04:01:15;100152.44;;;-3.48;100.00
41254;BME280;26987;59.928;30.306;2024-01-11T04:03:43;100175.91;;;-3.46;100.00
41254;BME280;26987;59.928;30.306;2024-01-11T04:06:21;100150.41;;;-3.65;100.00
41254;BME280;26987;59.928;30.306;2024-01-11T04:08:50;100212.34;;;-3.64;100.00
41254;BME280;26987;59.928;30.306;2024-01-11T04:11:19;100087.50;;;-4.62;100.00
41254;BME280;26987;59.928;30.306;2024-01-11T04:13:46;100245.13;;;-4.03;100.00
41254;BME280;26987;59.928;30.306;2024-01-11T04:16:15;100163.59;;;-4.43;100.00
41254;BME280;26987;59.928;30.306;2024-01-11T04:18:43;100207.84;;;-4.28;100.00
41254;BME280;26987;59.928;30.306;2024-01-11T04:21:21;100223.78;;;-4.31;100.00
41254;BME280;26987;59.928;30.306;2024-01-11T04:23:50;100216.19;;;-4.46;100.00
41254;BME280;26987;59.928;30.306;2024-01-11T04:26:17;100232.50;;;-4.42;100.00
41254;BME280;26987;59.928;30.306;2024-01-11T04:28:45;100230.84;;;-4.43;100.00
41254;BME280;26987;59.928;30.306;2024-01-11T04:31:14;100260.56;;;-4.44;100.00
41254;BME280;26987;59.928;30.306;2024-01-11T04:33:43;100208.50;;;-4.70;100.00
41254;BME280;26987;59.928;30.306;2024-01-11T04:36:12;100258.31;;;-4.49;100.00
41254;BME280;26987;59.928;30.306;2024-01-11T04:38:41;100265.47;;;-4.51;100.00
41254;BME280;26987;59.928;30.306;2024-01-11T04:41:11;100256.66;;;-4.50;100.00
41254;BME280;26987;59.928;30.306;2024-01-11T04:43:39;100268.56;;;-4.57;100.00
41254;BME280;26987;59.928;30.306;2024-01-11T04:46:15;100255.94;;;-4.63;100.00
41254;BME280;26987;59.928;30.306;2024-01-11T04:48:43;100286.25;;;-4.61;100.00
41254;BME280;26987;59.928;30.306;2024-01-11T04:51:12;100266.53;;;-4.53;100.00
41254;BME280;26987;59.928;30.306;2024-01-11T04:53:43;100306.84;;;-4.56;100.00
41254;BME280;26987;59.928;30.306;2024-01-11T04:56:13;100323.97;;;-4.63;100.00
41254;BME280;26987;59.928;30.306;2024-01-11T04:58:42;100313.06;;;-4.69;100.00
41254;BME280;26987;59.928;30.306;2024-01-11T05:01:12;100309.94;;;-4.74;100.00
41254;BME280;26987;59.928;30.306;2024-01-11T05:03:40;100289.69;;;-5.06;100.00
41254;BME280;26987;59.928;30.306;2024-01-11T05:06:08;100339.78;;;-4.76;100.00
41254;BME280;26987;59.928;30.306;2024-01-11T05:08:36;100348.72;;;-4.79;100.00
41254;BME280;26987;59.928;30.306;2024-01-11T05:11:06;100345.81;;;-4.87;100.00
41254;BME280;26987;59.928;30.306;2024-01-11T05:13:34;100346.50;;;-4.97;100.00
41254;BME280;26987;59.928;30.306;2024-01-11T05:16:02;100355.66;;;-5.02;100.00
41254;BME280;26987;59.928;30.306;2024-01-11T05:18:30;100228.81;;;-5.91;100.00
41254;BME280;26987;59.928;30.306;2024-01-11T05:20:58;100383.75;;;-5.29;100.00
41254;BME280;26987;59.928;30.306;2024-01-11T05:23:25;100370.13;;;-5.46;100.00
41254;BME280;26987;59.928;30.306;2024-01-11T05:25:53;100355.94;;;-5.54;100.00
41254;BME280;26987;59.928;30.306;2024-01-11T05:28:23;100372.66;;;-5.57;100.00
41254;BME280;26987;59.928;30.306;2024-01-11T05:30:50;100381.56;;;-5.60;100.00
41254;BME280;26987;59.928;30.306;2024-01-11T05:33:18;100377.66;;;-5.54;100.00
41254;BME280;26987;59.928;30.306;2024-01-11T05:35:47;100376.22;;;-5.58;100.00
41254;BME280;26987;59.928;30.306;2024-01-11T05:38:14;100259.16;;;-6.26;100.00
41254;BME280;26987;59.928;30.306;2024-01-11T05:40:42;100394.34;;;-5.44;100.00
41254;BME280;26987;59.928;30.306;2024-01-11T05:43:11;100413.16;;;-5.38;100.00
41254;BME280;26987;59.928;30.306;2024-01-11T05:45:40;100400.06;;;-5.63;100.00
41254;BME280;26987;59.928;30.306;2024-01-11T05:48:10;100415.03;;;-5.65;100.00
41254;BME280;26987;59.928;30.306;2024-01-11T05:50:38;100395.03;;;-5.90;100.00
41254;BME280;26987;59.928;30.306;2024-01-11T05:53:06;100383.91;;;-6.18;100.00
41254;BME280;26987;59.928;30.306;2024-01-11T05:55:34;100418.44;;;-6.02;100.00
41254;BME280;26987;59.928;30.306;2024-01-11T05:58:02;100439.75;;;-5.95;100.00
41254;BME280;26987;59.928;30.306;2024-01-11T06:00:30;100399.78;;;-6.22;100.00
41254;BME280;26987;59.928;30.306;2024-01-11T06:02:59;100353.88;;;-6.63;100.00
41254;BME280;26987;59.928;30.306;2024-01-11T06:05:28;100456.44;;;-5.85;100.00
41254;BME280;26987;59.928;30.306;2024-01-11T06:07:55;100474.72;;;-5.85;100.00
41254;BME280;26987;59.928;30.306;2024-01-11T06:10:23;100479.31;;;-5.88;100.00
41254;BME280;26987;59.928;30.306;2024-01-11T06:12:51;100484.88;;;-5.80;100.00
41254;BME280;26987;59.928;30.306;2024-01-11T06:15:19;100489.56;;;-5.85;100.00
41254;BME280;26987;59.928;30.306;2024-01-11T06:17:47;100510.88;;;-5.91;100.00
41254;BME280;26987;59.928;30.306;2024-01-11T06:20:17;100516.34;;;-6.08;100.00
41254;BME280;26987;59.928;30.306;2024-01-11T06:22:45;100505.91;;;-6.21;100.00
41254;BME280;26987;59.928;30.306;2024-01-11T06:25:13;100533.25;;;-6.13;100.00
41254;BME280;26987;59.928;30.306;2024-01-11T06:27:42;100521.56;;;-6.21;100.00
41254;BME280;26987;59.928;30.306;2024-01-11T06:30:11;100533.03;;;-6.23;100.00
41254;BME280;26987;59.928;30.306;2024-01-11T06:32:39;100544.22;;;-6.21;100.00
41254;BME280;26987;59.928;30.306;2024-01-11T06:35:07;100546.56;;;-6.31;100.00
41254;BME280;26987;59.928;30.306;2024-01-11T06:37:37;100572.69;;;-6.31;100.00
41254;BME280;26987;59.928;30.306;2024-01-11T06:40:06;100561.72;;;-6.36;100.00
41254;BME280;26987;59.928;30.306;2024-01-11T06:42:34;100576.63;;;-6.38;100.00
41254;BME280;26987;59.928;30.306;2024-01-11T06:45:03;100595.28;;;-6.44;100.00
41254;BME280;26987;59.928;30.306;2024-01-11T06:47:31;100593.78;;;-6.62;100.00
41254;BME280;26987;59.928;30.306;2024-01-11T06:49:59;100600.06;;;-6.64;100.00
41254;BME280;26987;59.928;30.306;2024-01-11T06:52:27;100610.13;;;-6.73;100.00
41254;BME280;26987;59.928;30.306;2024-01-11T06:54:56;100613.00;;;-6.77;100.00
41254;BME280;26987;59.928;30.306;2024-01-11T06:57:24;100603.81;;;-6.83;100.00
41254;BME280;26987;59.928;30.306;2024-01-11T06:59:52;100606.22;;;-6.80;100.00
41254;BME280;26987;59.928;30.306;2024-01-11T07:02:20;100631.00;;;-6.73;100.00
41254;BME280;26987;59.928;30.306;2024-01-11T07:04:48;100626.91;;;-6.77;100.00
41254;BME280;26987;59.928;30.306;2024-01-11T07:07:15;100628.84;;;-6.80;100.00
41254;BME280;26987;59.928;30.306;2024-01-11T07:09:43;100625.78;;;-6.73;100.00
41254;BME280;26987;59.928;30.306;2024-01-11T07:12:13;100614.00;;;-6.65;100.00
41254;BME280;26987;59.928;30.306;2024-01-11T07:14:42;100627.16;;;-6.39;100.00
41254;BME280;26987;59.928;30.306;2024-01-11T07:17:10;100632.38;;;-6.39;100.00
41254;BME280;26987;59.928;30.306;2024-01-11T07:19:38;100577.81;;;-6.85;100.00
41254;BME280;26987;59.928;30.306;2024-01-11T07:22:06;100662.91;;;-6.54;100.00
41254;BME280;26987;59.928;30.306;2024-01-11T07:24:33;100650.53;;;-6.65;100.00
41254;BME280;26987;59.928;30.306;2024-01-11T07:27:04;100652.78;;;-6.74;100.00
41254;BME280;26987;59.928;30.306;2024-01-11T07:29:33;100647.59;;;-6.74;100.00
41254;BME280;26987;59.928;30.306;2024-01-11T07:32:02;100628.59;;;-6.90;100.00
41254;BME280;26987;59.928;30.306;2024-01-11T07:34:30;100620.22;;;-6.96;100.00
41254;BME280;26987;59.928;30.306;2024-01-11T07:36:58;100653.13;;;-6.65;100.00
41254;BME280;26987;59.928;30.306;2024-01-11T07:39:26;100657.06;;;-6.73;100.00
41254;BME280;26987;59.928;30.306;2024-01-11T07:41:57;100653.00;;;-6.77;100.00
41254;BME280;26987;59.928;30.306;2024-01-11T07:44:25;100677.63;;;-6.53;100.00
41254;BME280;26987;59.928;30.306;2024-01-11T07:46:54;100682.66;;;-6.50;100.00
41254;BME280;26987;59.928;30.306;2024-01-11T07:49:22;100689.47;;;-6.48;100.00
41254;BME280;26987;59.928;30.306;2024-01-11T07:51:50;100685.72;;;-6.43;100.00
41254;BME280;26987;59.928;30.306;2024-01-11T07:54:18;100686.84;;;-6.48;100.00
41254;BME280;26987;59.928;30.306;2024-01-11T07:56:46;100695.41;;;-6.46;100.00
41254;BME280;26987;59.928;30.306;2024-01-11T07:59:14;100686.09;;;-6.50;100.00
41254;BME280;26987;59.928;30.306;2024-01-11T08:01:42;100694.53;;;-6.74;100.00
41254;BME280;26987;59.928;30.306;2024-01-11T08:04:12;100700.09;;;-6.65;100.00
41254;BME280;26987;59.928;30.306;2024-01-11T08:06:40;100708.19;;;-6.70;100.00
41254;BME280;26987;59.928;30.306;2024-01-11T08:09:08;100706.09;;;-6.78;100.00
41254;BME280;26987;59.928;30.306;2024-01-11T08:11:36;100708.69;;;-6.78;100.00
41254;BME280;26987;59.928;30.306;2024-01-11T08:14:07;100715.31;;;-6.72;100.00
41254;BME280;26987;59.928;30.306;2024-01-11T08:16:34;100711.50;;;-6.81;100.00
41254;BME280;26987;59.928;30.306;2024-01-11T08:19:02;100733.47;;;-6.85;100.00
41254;BME280;26987;59.928;30.306;2024-01-11T08:21:31;100724.69;;;-6.99;100.00
41254;BME280;26987;59.928;30.306;2024-01-11T08:23:59;100715.09;;;-7.27;100.00
41254;BME280;26987;59.928;30.306;2024-01-11T08:26:44;100722.47;;;-7.19;100.00
41254;BME280;26987;59.928;30.306;2024-01-11T08:29:13;100711.56;;;-7.26;100.00
41254;BME280;26987;59.928;30.306;2024-01-11T08:31:41;100731.69;;;-7.14;100.00
41254;BME280;26987;59.928;30.306;2024-01-11T08:34:10;100739.88;;;-7.05;100.00
41254;BME280;26987;59.928;30.306;2024-01-11T08:36:39;100746.50;;;-7.14;100.00
41254;BME280;26987;59.928;30.306;2024-01-11T08:39:07;100748.69;;;-7.23;100.00
41254;BME280;26987;59.928;30.306;2024-01-11T08:41:37;100739.75;;;-7.33;100.00
41254;BME280;26987;59.928;30.306;2024-01-11T08:44:05;100734.94;;;-7.25;100.00
41254;BME280;26987;59.928;30.306;2024-01-11T08:46:34;100745.53;;;-7.28;100.00
41254;BME280;26987;59.928;30.306;2024-01-11T08:49:02;100739.63;;;-7.46;100.00
41254;BME280;26987;59.928;30.306;2024-01-11T08:51:30;100755.78;;;-7.25;100.00
41254;BME280;26987;59.928;30.306;2024-01-11T08:54:01;100748.34;;;-7.16;100.00
41254;BME280;26987;59.928;30.306;2024-01-11T08:56:29;100752.16;;;-7.07;100.00
41254;BME280;26987;59.928;30.306;2024-01-11T08:58:56;100770.88;;;-7.15;100.00
41254;BME280;26987;59.928;30.306;2024-01-11T09:01:25;100773.94;;;-7.23;100.00
41254;BME280;26987;59.928;30.306;2024-01-11T09:03:53;100773.28;;;-7.27;100.00
41254;BME280;26987;59.928;30.306;2024-01-11T09:06:21;100777.00;;;-7.31;100.00
41254;BME280;26987;59.928;30.306;2024-01-11T09:08:49;100790.66;;;-7.27;100.00
41254;BME280;26987;59.928;30.306;2024-01-11T09:11:18;100776.31;;;-7.35;100.00
41254;BME280;26987;59.928;30.306;2024-01-11T09:13:46;100793.56;;;-7.32;100.00
41254;BME280;26987;59.928;30.306;2024-01-11T09:16:15;100793.91;;;-7.38;100.00
41254;BME280;26987;59.928;30.306;2024-01-11T09:18:43;100778.47;;;-7.41;100.00
41254;BME280;26987;59.928;30.306;2024-01-11T09:21:11;100800.66;;;-7.19;100.00
41254;BME280;26987;59.928;30.306;2024-01-11T09:23:39;100803.00;;;-7.15;100.00
41254;BME280;26987;59.928;30.306;2024-01-11T09:26:07;100784.13;;;-7.35;100.00
41254;BME280;26987;59.928;30.306;2024-01-11T09:28:36;100829.31;;;-7.19;100.00
41254;BME280;26987;59.928;30.306;2024-01-11T09:31:04;100815.75;;;-7.25;100.00
41254;BME280;26987;59.928;30.306;2024-01-11T09:33:32;100824.69;;;-7.14;100.00
41254;BME280;26987;59.928;30.306;2024-01-11T09:36:00;100829.31;;;-7.19;100.00
41254;BME280;26987;59.928;30.306;2024-01-11T09:38:28;100825.66;;;-7.31;100.00
41254;BME280;26987;59.928;30.306;2024-01-11T09:41:06;100838.22;;;-7.38;100.00
41254;BME280;26987;59.928;30.306;2024-01-11T09:43:36;100854.50;;;-7.35;100.00
41254;BME280;26987;59.928;30.306;2024-01-11T09:46:05;100853.69;;;-7.51;100.00
41254;BME280;26987;59.928;30.306;2024-01-11T09:48:34;100862.94;;;-7.45;100.00
41254;BME280;26987;59.928;30.306;2024-01-11T09:51:04;100861.06;;;-7.43;100.00
41254;BME280;26987;59.928;30.306;2024-01-11T09:53:33;100869.78;;;-7.28;100.00
41254;BME280;26987;59.928;30.306;2024-01-11T09:56:05;100866.88;;;-7.38;100.00
41254;BME280;26987;59.928;30.306;2024-01-11T09:58:36;100868.38;;;-7.34;100.00
41254;BME280;26987;59.928;30.306;2024-01-11T10:01:08;100873.47;;;-7.16;100.00
41254;BME280;26987;59.928;30.306;2024-01-11T10:03:39;100883.72;;;-7.13;100.00
41254;BME280;26987;59.928;30.306;2024-01-11T10:06:08;100785.00;;;-7.81;100.00
41254;BME280;26987;59.928;30.306;2024-01-11T10:08:37;100884.69;;;-7.30;100.00
41254;BME280;26987;59.928;30.306;2024-01-11T10:11:05;100886.59;;;-7.18;100.00
41254;BME280;26987;59.928;30.306;2024-01-11T10:13:32;100886.84;;;-7.23;100.00
41254;BME280;26987;59.928;30.306;2024-01-11T10:16:07;100893.97;;;-7.10;100.00
41254;BME280;26987;59.928;30.306;2024-01-11T10:18:36;100895.28;;;-7.03;100.00
41254;BME280;26987;59.928;30.306;2024-01-11T10:21:04;100917.19;;;-7.05;100.00
41254;BME280;26987;59.928;30.306;2024-01-11T10:23:33;100889.28;;;-7.19;100.00
41254;BME280;26987;59.928;30.306;2024-01-11T10:26:01;100922.66;;;-7.10;100.00
41254;BME280;26987;59.928;30.306;2024-01-11T10:28:29;100916.84;;;-7.15;100.00
41254;BME280;26987;59.928;30.306;2024-01-11T10:30:58;100918.03;;;-7.21;100.00
41254;BME280;26987;59.928;30.306;2024-01-11T10:33:27;100923.59;;;-7.11;100.00
41254;BME280;26987;59.928;30.306;2024-01-11T10:35:56;100935.53;;;-7.07;100.00
41254;BME280;26987;59.928;30.306;2024-01-11T10:38:25;100947.00;;;-6.95;100.00
41254;BME280;26987;59.928;30.306;2024-01-11T10:40:54;100924.50;;;-7.12;100.00
41254;BME280;26987;59.928;30.306;2024-01-11T10:43:23;100938.25;;;-7.25;100.00
41254;BME280;26987;59.928;30.306;2024-01-11T10:45:51;100943.97;;;-7.34;100.00
41254;BME280;26987;59.928;30.306;2024-01-11T10:48:21;100959.59;;;-7.34;100.00
41254;BME280;26987;59.928;30.306;2024-01-11T10:50:54;100944.97;;;-7.53;100.00
41254;BME280;26987;59.928;30.306;2024-01-11T10:53:31;100943.69;;;-7.62;100.00
41254;BME280;26987;59.928;30.306;2024-01-11T10:56:05;100952.13;;;-7.56;100.00
41254;BME280;26987;59.928;30.306;2024-01-11T10:58:35;100946.66;;;-7.52;100.00
41254;BME280;26987;59.928;30.306;2024-01-11T11:01:03;100964.97;;;-7.53;100.00
41254;BME280;26987;59.928;30.306;2024-01-11T11:03:33;100940.00;;;-7.74;100.00
41254;BME280;26987;59.928;30.306;2024-01-11T11:06:05;100972.88;;;-7.55;100.00
41254;BME280;26987;59.928;30.306;2024-01-11T11:08:34;100959.94;;;-7.73;100.00
41254;BME280;26987;59.928;30.306;2024-01-11T11:11:04;100963.50;;;-7.75;100.00
41254;BME280;26987;59.928;30.306;2024-01-11T11:13:33;100944.94;;;-7.85;100.00
41254;BME280;26987;59.928;30.306;2024-01-11T11:16:01;100986.47;;;-7.66;100.00
41254;BME280;26987;59.928;30.306;2024-01-11T11:18:31;100976.97;;;-7.67;100.00
41254;BME280;26987;59.928;30.306;2024-01-11T11:21:01;100995.56;;;-7.57;100.00
41254;BME280;26987;59.928;30.306;2024-01-11T11:23:35;100991.84;;;-7.53;100.00
41254;BME280;26987;59.928;30.306;2024-01-11T11:26:05;100910.22;;;-8.02;100.00
41254;BME280;26987;59.928;30.306;2024-01-11T11:28:34;100974.94;;;-7.62;100.00
41254;BME280;26987;59.928;30.306;2024-01-11T11:31:03;100999.50;;;-7.50;100.00
41254;BME280;26987;59.928;30.306;2024-01-11T11:33:31;101015.28;;;-7.53;100.00
41254;BME280;26987;59.928;30.306;2024-01-11T11:35:59;101004.47;;;-7.61;100.00
41254;BME280;26987;59.928;30.306;2024-01-11T11:38:29;101014.19;;;-7.65;100.00
41254;BME280;26987;59.928;30.306;2024-01-11T11:41:00;101022.25;;;-7.69;100.00
41254;BME280;26987;59.928;30.306;2024-01-11T11:43:29;100981.41;;;-7.85;100.00
41254;BME280;26987;59.928;30.306;2024-01-11T11:45:57;101044.88;;;-7.54;100.00
41254;BME280;26987;59.928;30.306;2024-01-11T11:48:49;101042.66;;;-7.44;100.00
41254;BME280;26987;59.928;30.306;2024-01-11T11:51:18;101039.75;;;-7.55;100.00
41254;BME280;26987;59.928;30.306;2024-01-11T11:53:48;101047.94;;;-7.45;100.00
41254;BME280;26987;59.928;30.306;2024-01-11T11:56:20;101060.53;;;-7.54;100.00
41254;BME280;26987;59.928;30.306;2024-01-11T11:58:49;101083.66;;;-7.48;100.00
41254;BME280;26987;59.928;30.306;2024-01-11T12:01:18;101074.09;;;-7.47;100.00
41254;BME280;26987;59.928;30.306;2024-01-11T12:03:47;101089.78;;;-7.49;100.00
41254;BME280;26987;59.928;30.306;2024-01-11T12:06:17;101095.00;;;-7.49;100.00
41254;BME280;26987;59.928;30.306;2024-01-11T12:08:46;101093.75;;;-7.41;100.00
41254;BME280;26987;59.928;30.306;2024-01-11T12:11:14;101087.94;;;-7.47;100.00
41254;BME280;26987;59.928;30.306;2024-01-11T12:13:44;101091.88;;;-7.39;100.00
41254;BME280;26987;59.928;30.306;2024-01-11T12:16:12;101108.72;;;-7.29;100.00
41254;BME280;26987;59.928;30.306;2024-01-11T12:18:40;101113.28;;;-7.32;100.00
41254;BME280;26987;59.928;30.306;2024-01-11T12:21:08;101113.03;;;-7.28;100.00
41254;BME280;26987;59.928;30.306;2024-01-11T12:23:38;101102.53;;;-7.26;100.00
41254;BME280;26987;59.928;30.306;2024-01-11T12:26:20;101119.44;;;-7.17;100.00
41254;BME280;26987;59.928;30.306;2024-01-11T12:28:50;101114.81;;;-7.12;100.00
41254;BME280;26987;59.928;30.306;2024-01-11T12:31:17;101126.00;;;-7.10;100.00
41254;BME280;26987;59.928;30.306;2024-01-11T12:33:47;101112.34;;;-7.15;100.00
41254;BME280;26987;59.928;30.306;2024-01-11T12:36:15;101138.88;;;-7.07;100.00
41254;BME280;26987;59.928;30.306;2024-01-11T12:38:48;101139.13;;;-7.12;100.00
41254;BME280;26987;59.928;30.306;2024-01-11T12:41:16;101141.97;;;-7.16;100.00
41254;BME280;26987;59.928;30.306;2024-01-11T12:43:44;101129.56;;;-7.29;100.00